Time;durP1;ratioP1;P1;durP2;ratioP2;P2;SDS_P1;SDS_P2;PMS_P1;PMS_P2;Temp;Humidity;BMP_temperature;BMP_pressure;BME280_temperature;BME280_humidity;BME280_pressure;Samples;Min_cycle;Max_cycle;Signal;HPM_P1;HPM_P2
2022/07/23 00:00:43;;;;;;;;;;;;;;;;;;4955159;28;20001;-77
2022/07/23 00:03:08;;;;;;;;;;;;;;;;;;4955185;28;20343;-77
2022/07/23 00:05:34;;;;;;;;;;;;;;;;;;4954273;28;20289;-77
2022/07/23 00:07:59;;;;;;;;;;;;;;;;;;4955464;28;20016;-78
2022/07/23 00:10:24;;;;;;;;;;;;;;;;;;4955327;28;19946;-75
2022/07/23 00:12:50;;;;;;;;;;;;;;;;;;4954084;28;20336;-77
2022/07/23 00:15:15;;;;;;;;;;;;;;;;;;4954005;28;19914;-77
2022/07/23 00:17:41;;;;;;;;;;;;;;;;;;4955184;28;20013;-78
2022/07/23 00:20:06;;;;;;;;;;;;;;;;;;4954323;28;19945;-77
2022/07/23 00:22:31;;;;;;;;;;;;;;;;;;4922246;29;19969;-78
2022/07/23 00:24:57;;;;;;;;;;;;;;;;;;4955187;28;20006;-77
2022/07/23 00:27:22;;;;;;;;;;;;;;;;;;4954035;28;19921;-79
2022/07/23 00:29:47;;;;;;;;;;;;;;;;;;4953865;28;19914;-78
2022/07/23 00:32:13;;;;;;;;;;;;;;;;;;4953879;28;20389;-77
2022/07/23 00:34:38;;;;;;;;;;;;;;;;;;4954748;28;19920;-77
2022/07/23 00:37:04;;;;;;;;;;;;;;;;;;4937898;29;20294;-78
2022/07/23 00:39:29;;;;;;;;;;;;;;;;;;4954242;28;19966;-78
2022/07/23 00:41:54;;;;;;;;;;;;;;;;;;4937791;29;19914;-78
2022/07/23 00:44:21;;;;;;;;;;;;;;;;;;4937656;29;19918;-78
2022/07/23 00:46:46;;;;;;;;;;;;;;;;;;4953671;29;19921;-78
2022/07/23 00:49:11;;;;;;;;;;;;;;;;;;4954822;28;20005;-77
2022/07/23 00:51:37;;;;;;;;;;;;;;;;;;4936717;29;20386;-77
2022/07/23 00:54:02;;;;;;;;;;;;;;;;;;4937380;29;19936;-77
2022/07/23 00:56:27;;;;;;;;;;;;;;;;;;4953620;29;19914;-77
2022/07/23 00:58:53;;;;;;;;;;;;;;;;;;4955168;28;20005;-78
2022/07/23 01:01:18;;;;;;;;;;;;;;;;;;4953878;28;20013;-78
2022/07/23 01:03:44;;;;;;;;;;;;;;;;;;4953506;28;20338;-78
2022/07/23 01:06:09;;;;;;;;;;;;;;;;;;4921387;29;19921;-77
2022/07/23 01:08:35;;;;;;;;;;;;;;;;;;4953194;29;19962;-78
2022/07/23 01:11:00;;;;;;;;;;;;;;;;;;4937136;29;19926;-78
2022/07/23 01:13:26;;;;;;;;;;;;;;;;;;4953193;28;20033;-78
2022/07/23 01:15:51;;;;;;;;;;;;;;;;;;4937214;29;20318;-78
2022/07/23 01:18:16;;;;;;;;;;;;;;;;;;4953356;28;19926;-77
2022/07/23 01:20:42;;;;;;;;;;;;;;;;;;4953761;29;19914;-78
2022/07/23 01:23:08;;;;;;;;;;;;;;;;;;4953538;29;19921;-78
2022/07/23 01:25:34;;;;;;;;;;;;;;;;;;4937893;29;19966;-77
2022/07/23 01:28:01;;;;;;;;;;;;;;;;;;4953635;28;19919;-78
2022/07/23 01:30:26;;;;;;;;;;;;;;;;;;4953616;29;19929;-79
2022/07/23 01:32:53;;;;;;;;;;;;;;;;;;4953383;29;20244;-78
2022/07/23 01:35:18;;;;;;;;;;;;;;;;;;4953454;28;20356;-78
2022/07/23 01:37:44;;;;;;;;;;;;;;;;;;4955132;29;19974;-77
2022/07/23 01:40:09;;;;;;;;;;;;;;;;;;4923032;29;19948;-77
2022/07/23 01:42:36;;;;;;;;;;;;;;;;;;4953622;29;19970;-76
2022/07/23 01:45:02;;;;;;;;;;;;;;;;;;4938109;29;20374;-78
2022/07/23 01:47:27;;;;;;;;;;;;;;;;;;4939769;29;19982;-78
2022/07/23 01:49:54;;;;;;;;;;;;;;;;;;4958152;28;19914;-76
2022/07/23 01:52:43;;;;;;;;;;;;;;;;;;4953181;28;19914;-78
2022/07/23 01:55:08;;;;;;;;;;;;;;;;;;4923606;29;19914;-78
2022/07/23 01:57:34;;;;;;;;;;;;;;;;;;4937858;29;19914;-77
2022/07/23 02:00:00;;;;;;;;;;;;;;;;;;4937768;29;19934;-77
2022/07/23 02:02:25;;;;;;;;;;;;;;;;;;4921936;29;19918;-79
2022/07/23 02:04:51;;;;;;;;;;;;;;;;;;4956073;28;19922;-79
2022/07/23 02:07:18;;;;;;;;;;;;;;;;;;4940742;29;19914;-78
2022/07/23 02:09:44;;;;;;;;;;;;;;;;;;4957615;28;19914;-78
2022/07/23 02:12:11;;;;;;;;;;;;;;;;;;4956181;28;20397;-78
2022/07/23 02:14:36;;;;;;;;;;;;;;;;;;4957270;28;19918;-77
2022/07/23 02:17:02;;;;;;;;;;;;;;;;;;4956028;28;19958;-78
2022/07/23 02:19:27;;;;;;;;;;;;;;;;;;4956119;28;19915;-79
2022/07/23 02:21:54;;;;;;;;;;;;;;;;;;4956210;28;20386;-77
2022/07/23 02:24:19;;;;;;;;;;;;;;;;;;4955983;29;19966;-78
2022/07/23 02:26:45;;;;;;;;;;;;;;;;;;4956156;28;20515;-78
2022/07/23 02:29:10;;;;;;;;;;;;;;;;;;4956253;29;19934;-78
2022/07/23 02:31:36;;;;;;;;;;;;;;;;;;4955697;28;19918;-78
2022/07/23 02:34:01;;;;;;;;;;;;;;;;;;4955944;29;20437;-78
2022/07/23 02:36:26;;;;;;;;;;;;;;;;;;4957156;28;19911;-79
2022/07/23 02:38:52;;;;;;;;;;;;;;;;;;4940056;29;19915;-78
2022/07/23 02:41:18;;;;;;;;;;;;;;;;;;4940091;29;19922;-78
2022/07/23 02:43:43;;;;;;;;;;;;;;;;;;4955589;29;20522;-77
2022/07/23 02:46:11;;;;;;;;;;;;;;;;;;4956120;29;20546;-77
2022/07/23 02:48:36;;;;;;;;;;;;;;;;;;4956966;28;19961;-77
2022/07/23 02:51:02;;;;;;;;;;;;;;;;;;4955738;28;20010;-77
2022/07/23 02:53:33;;;;;;;;;;;;;;;;;;4955594;29;19914;-77
2022/07/23 02:55:58;;;;;;;;;;;;;;;;;;4939518;29;19921;-77
2022/07/23 02:58:24;;;;;;;;;;;;;;;;;;4939398;29;19916;-77
2022/07/23 03:00:50;;;;;;;;;;;;;;;;;;4955240;28;20025;-78
2022/07/23 03:03:15;;;;;;;;;;;;;;;;;;4939250;29;20473;-77
2022/07/23 03:05:41;;;;;;;;;;;;;;;;;;4939386;29;19976;-78
2022/07/23 03:08:06;;;;;;;;;;;;;;;;;;4955317;29;20318;-78
2022/07/23 03:10:34;;;;;;;;;;;;;;;;;;4939335;29;19981;-78
2022/07/23 03:12:59;;;;;;;;;;;;;;;;;;4956202;28;20318;-78
2022/07/23 03:15:24;;;;;;;;;;;;;;;;;;4954568;28;19915;-78
2022/07/23 03:17:50;;;;;;;;;;;;;;;;;;4956572;28;20005;-78
2022/07/23 03:20:15;;;;;;;;;;;;;;;;;;4956562;28;20279;-78
2022/07/23 03:22:40;;;;;;;;;;;;;;;;;;4955072;29;19918;-78
2022/07/23 03:25:06;;;;;;;;;;;;;;;;;;4939054;29;19921;-76
2022/07/23 03:27:34;;;;;;;;;;;;;;;;;;4955260;28;19915;-77
2022/07/23 03:29:59;;;;;;;;;;;;;;;;;;4954885;29;19919;-77
2022/07/23 03:32:25;;;;;;;;;;;;;;;;;;4955777;28;20305;-77
2022/07/23 03:34:50;;;;;;;;;;;;;;;;;;4954784;28;20463;-77
2022/07/23 03:37:16;;;;;;;;;;;;;;;;;;4954606;28;19965;-77
2022/07/23 03:39:41;;;;;;;;;;;;;;;;;;4954575;29;20329;-78
2022/07/23 03:42:07;;;;;;;;;;;;;;;;;;4954485;29;20259;-77
2022/07/23 03:44:32;;;;;;;;;;;;;;;;;;4938301;29;19922;-78
2022/07/23 03:46:57;;;;;;;;;;;;;;;;;;4955828;28;19914;-77
2022/07/23 03:49:23;;;;;;;;;;;;;;;;;;4938795;29;19961;-78
2022/07/23 03:51:48;;;;;;;;;;;;;;;;;;4922402;29;19969;-78
2022/07/23 03:54:13;;;;;;;;;;;;;;;;;;4954100;29;19915;-78
2022/07/23 03:56:39;;;;;;;;;;;;;;;;;;4956032;28;20397;-78
2022/07/23 03:59:04;;;;;;;;;;;;;;;;;;4954278;29;19914;-77
2022/07/23 04:01:30;;;;;;;;;;;;;;;;;;4938451;29;20362;-77
2022/07/23 04:03:55;;;;;;;;;;;;;;;;;;4955288;28;19914;-77
2022/07/23 04:06:20;;;;;;;;;;;;;;;;;;4954349;29;20397;-78
2022/07/23 04:08:46;;;;;;;;;;;;;;;;;;4954137;29;20293;-78
2022/07/23 04:11:11;;;;;;;;;;;;;;;;;;4954322;28;19966;-79
2022/07/23 04:13:49;;;;;;;;;;;;;;;;;;4954478;28;20338;-80
2022/07/23 04:16:40;;;;;;;;;;;;;;;;;;4955422;28;19914;-79
2022/07/23 04:19:05;;;;;;;;;;;;;;;;;;4954377;28;19922;-80
2022/07/23 04:21:39;;;;;;;;;;;;;;;;;;4938362;29;19969;-79
2022/07/23 04:24:04;;;;;;;;;;;;;;;;;;4953735;29;19919;-79
2022/07/23 04:26:30;;;;;;;;;;;;;;;;;;4953247;28;20009;-79
2022/07/23 04:28:55;;;;;;;;;;;;;;;;;;4954279;28;19938;-79
2022/07/23 04:31:21;;;;;;;;;;;;;;;;;;4953774;28;19922;-79
2022/07/23 04:33:47;;;;;;;;;;;;;;;;;;4938033;29;20292;-79
2022/07/23 04:36:12;;;;;;;;;;;;;;;;;;4937840;29;19922;-79
2022/07/23 04:38:38;;;;;;;;;;;;;;;;;;4938170;29;19914;-79
2022/07/23 04:41:05;;;;;;;;;;;;;;;;;;4937227;29;20617;-79
2022/07/23 04:43:30;;;;;;;;;;;;;;;;;;4953512;28;19954;-79
2022/07/23 04:45:56;;;;;;;;;;;;;;;;;;4954966;28;19921;-79
2022/07/23 04:48:21;;;;;;;;;;;;;;;;;;4953417;28;19921;-78
2022/07/23 04:50:52;;;;;;;;;;;;;;;;;;4922375;29;19922;-79
2022/07/23 04:53:21;;;;;;;;;;;;;;;;;;4953503;28;19925;-79
2022/07/23 04:55:48;;;;;;;;;;;;;;;;;;4953477;29;20416;-79
2022/07/23 04:58:13;;;;;;;;;;;;;;;;;;4922074;29;19946;-80
2022/07/23 05:00:38;;;;;;;;;;;;;;;;;;4953549;28;20538;-80
2022/07/23 05:03:04;;;;;;;;;;;;;;;;;;4954414;28;19915;-78
2022/07/23 05:05:29;;;;;;;;;;;;;;;;;;4953861;28;20301;-79
2022/07/23 05:08:01;;;;;;;;;;;;;;;;;;4954186;29;19923;-78
2022/07/23 05:10:27;;;;;;;;;;;;;;;;;;4938185;29;19926;-78
2022/07/23 05:12:52;;;;;;;;;;;;;;;;;;4937552;29;20251;-78
2022/07/23 05:15:18;;;;;;;;;;;;;;;;;;4953255;29;19921;-77
2022/07/23 05:17:43;;;;;;;;;;;;;;;;;;4937709;29;20381;-76
2022/07/23 05:20:13;;;;;;;;;;;;;;;;;;4937554;29;20386;-76
2022/07/23 05:22:39;;;;;;;;;;;;;;;;;;4953143;28;19922;-76
2022/07/23 05:25:05;;;;;;;;;;;;;;;;;;4953209;28;19914;-76
2022/07/23 05:27:30;;;;;;;;;;;;;;;;;;4954326;28;19915;-76
2022/07/23 05:29:55;;;;;;;;;;;;;;;;;;4953158;28;19915;-77
2022/07/23 05:32:21;;;;;;;;;;;;;;;;;;4952821;28;19922;-76
2022/07/23 05:34:54;;;;;;;;;;;;;;;;;;4953094;29;20352;-76
2022/07/23 05:37:19;;;;;;;;;;;;;;;;;;4937521;28;20009;-77
2022/07/23 05:39:45;;;;;;;;;;;;;;;;;;4925342;29;19933;-76
2022/07/23 05:42:10;;;;;;;;;;;;;;;;;;4956839;29;20550;-77
2022/07/23 05:44:36;;;;;;;;;;;;;;;;;;4940923;29;19914;-77
2022/07/23 05:47:01;;;;;;;;;;;;;;;;;;4957368;28;19974;-77
2022/07/23 05:49:30;;;;;;;;;;;;;;;;;;4941346;29;19910;-76
2022/07/23 05:52:11;;;;;;;;;;;;;;;;;;4943146;29;20387;-76
2022/07/23 05:54:57;;;;;;;;;;;;;;;;;;4950439;29;19922;-75
2022/07/23 05:57:22;;;;;;;;;;;;;;;;;;4956768;29;19914;-76
2022/07/23 05:59:48;;;;;;;;;;;;;;;;;;4958854;28;19914;-77
2022/07/23 06:02:13;;;;;;;;;;;;;;;;;;4925605;29;19914;-77
2022/07/23 06:04:38;;;;;;;;;;;;;;;;;;4941662;29;19964;-77
2022/07/23 06:07:18;;;;;;;;;;;;;;;;;;4927766;29;19914;-76
2022/07/23 06:09:43;;;;;;;;;;;;;;;;;;4940548;29;20271;-76
2022/07/23 06:12:09;;;;;;;;;;;;;;;;;;4941065;29;19914;-77
2022/07/23 06:14:34;;;;;;;;;;;;;;;;;;4941139;29;20402;-77
2022/07/23 06:17:00;;;;;;;;;;;;;;;;;;4940863;29;20453;-77
2022/07/23 06:19:25;;;;;;;;;;;;;;;;;;4940942;29;20009;-77
2022/07/23 06:21:51;;;;;;;;;;;;;;;;;;4940696;29;19946;-76
2022/07/23 06:24:16;;;;;;;;;;;;;;;;;;4940239;29;19914;-78
2022/07/23 06:26:42;;;;;;;;;;;;;;;;;;4956329;29;19914;-77
2022/07/23 06:29:07;;;;;;;;;;;;;;;;;;4957989;28;19914;-77
2022/07/23 06:31:33;;;;;;;;;;;;;;;;;;4956490;28;20356;-77
2022/07/23 06:33:58;;;;;;;;;;;;;;;;;;4960134;28;19911;-79
2022/07/23 06:36:24;;;;;;;;;;;;;;;;;;4958369;29;19922;-76
2022/07/23 06:38:49;;;;;;;;;;;;;;;;;;4926512;29;20294;-77
2022/07/23 06:41:15;;;;;;;;;;;;;;;;;;4957794;28;19918;-76
2022/07/23 06:43:41;;;;;;;;;;;;;;;;;;4958494;29;20297;-77
2022/07/23 06:46:07;;;;;;;;;;;;;;;;;;4940696;29;20371;-76
2022/07/23 06:48:35;;;;;;;;;;;;;;;;;;4924240;29;19921;-76
2022/07/23 06:51:00;;;;;;;;;;;;;;;;;;4954360;28;19942;-75
2022/07/23 06:53:26;;;;;;;;;;;;;;;;;;4955234;28;19911;-76
2022/07/23 06:55:51;;;;;;;;;;;;;;;;;;4939483;29;19946;-76
2022/07/23 06:58:19;;;;;;;;;;;;;;;;;;4955254;29;19915;-76
2022/07/23 07:00:44;;;;;;;;;;;;;;;;;;4955020;29;19915;-77
2022/07/23 07:03:09;;;;;;;;;;;;;;;;;;4939397;29;19917;-77
2022/07/23 07:05:35;;;;;;;;;;;;;;;;;;4955091;28;19922;-78
2022/07/23 07:08:00;;;;;;;;;;;;;;;;;;4938862;29;19915;-77
2022/07/23 07:10:26;;;;;;;;;;;;;;;;;;4954897;29;20058;-77
2022/07/23 07:12:51;;;;;;;;;;;;;;;;;;4938778;29;19984;-76
2022/07/23 07:15:17;;;;;;;;;;;;;;;;;;4954647;28;19938;-76
2022/07/23 07:17:42;;;;;;;;;;;;;;;;;;4923125;29;19915;-76
2022/07/23 07:20:07;;;;;;;;;;;;;;;;;;4938941;29;19997;-77
2022/07/23 07:22:33;;;;;;;;;;;;;;;;;;4938619;29;19915;-77
2022/07/23 07:24:58;;;;;;;;;;;;;;;;;;4955737;28;19961;-78
2022/07/23 07:27:23;;;;;;;;;;;;;;;;;;4954721;28;19981;-78
2022/07/23 07:29:49;;;;;;;;;;;;;;;;;;4939023;29;19956;-78
2022/07/23 07:32:14;;;;;;;;;;;;;;;;;;4980128;23;19926;-82
2022/07/23 07:34:39;;;;;;;;;;;;;;;;;;4957493;28;19961;-83
2022/07/23 07:37:05;;;;;;;;;;;;;;;;;;4990339;28;19918;-83
2022/07/23 07:39:30;;;;;;;;;;;;;;;;;;4973803;28;19914;-84
2022/07/23 07:41:56;;;;;;;;;;;;;;;;;;4973681;28;19952;-83
2022/07/23 07:44:21;;;;;;;;;;;;;;;;;;4973637;28;20334;-82
2022/07/23 07:46:46;;;;;;;;;;;;;;;;;;4974079;28;20285;-83
2022/07/23 07:49:12;;;;;;;;;;;;;;;;;;4958345;28;19921;-84
2022/07/23 07:51:37;;;;;;;;;;;;;;;;;;4973755;28;19941;-84
2022/07/23 07:54:03;;;;;;;;;;;;;;;;;;4974112;28;19914;-83
2022/07/23 07:56:28;;;;;;;;;;;;;;;;;;4958083;28;19914;-83
2022/07/23 07:58:54;;;;;;;;;;;;;;;;;;4958102;28;20339;-83
2022/07/23 08:01:19;;;;;;;;;;;;;;;;;;4957774;28;19914;-82
2022/07/23 08:03:45;;;;;;;;;;;;;;;;;;4973279;28;19914;-82
2022/07/23 08:06:10;;;;;;;;;;;;;;;;;;4957721;28;20397;-83
2022/07/23 08:08:35;;;;;;;;;;;;;;;;;;4957773;28;19953;-83
2022/07/23 08:11:01;;;;;;;;;;;;;;;;;;4973659;28;20273;-83
2022/07/23 08:13:26;;;;;;;;;;;;;;;;;;4974065;28;19949;-81
2022/07/23 08:15:53;;;;;;;;;;;;;;;;;;4957761;28;19914;-82
2022/07/23 08:18:18;;;;;;;;;;;;;;;;;;4974711;28;19918;-82
2022/07/23 08:20:43;;;;;;;;;;;;;;;;;;4972872;28;19914;-83
2022/07/23 08:23:09;;;;;;;;;;;;;;;;;;4988984;28;20377;-82
2022/07/23 08:25:34;;;;;;;;;;;;;;;;;;4973355;28;19921;-80
2022/07/23 08:28:00;;;;;;;;;;;;;;;;;;4959903;28;20396;-82
2022/07/23 08:30:25;;;;;;;;;;;;;;;;;;4976830;28;19928;-84
2022/07/23 08:32:50;;;;;;;;;;;;;;;;;;4978145;28;19918;-83
2022/07/23 08:35:16;;;;;;;;;;;;;;;;;;4974976;28;20334;-83
2022/07/23 08:37:41;;;;;;;;;;;;;;;;;;4990779;28;19917;-82
2022/07/23 08:40:07;;;;;;;;;;;;;;;;;;4976925;28;19977;-81
2022/07/23 08:42:35;;;;;;;;;;;;;;;;;;4975168;28;19960;-83
2022/07/23 08:45:00;;;;;;;;;;;;;;;;;;4974032;28;19921;-81
2022/07/23 08:47:26;;;;;;;;;;;;;;;;;;4974043;28;19914;-83
2022/07/23 08:49:51;;;;;;;;;;;;;;;;;;4972385;28;19914;-84
2022/07/23 08:52:16;;;;;;;;;;;;;;;;;;4973379;28;20394;-83
2022/07/23 08:54:42;;;;;;;;;;;;;;;;;;4956567;28;19973;-83
2022/07/23 08:57:07;;;;;;;;;;;;;;;;;;4957722;28;19933;-83
2022/07/23 08:59:32;;;;;;;;;;;;;;;;;;4975752;28;19941;-83
2022/07/23 09:02:00;;;;;;;;;;;;;;;;;;4972966;28;19914;-81
2022/07/23 09:04:25;;;;;;;;;;;;;;;;;;4940558;28;19918;-82
2022/07/23 09:06:51;;;;;;;;;;;;;;;;;;4974617;28;20379;-83
2022/07/23 09:09:16;;;;;;;;;;;;;;;;;;4972730;28;19965;-82
2022/07/23 09:11:41;;;;;;;;;;;;;;;;;;4974283;28;20009;-81
2022/07/23 09:14:06;;;;;;;;;;;;;;;;;;4973634;28;20008;-84
2022/07/23 09:16:32;;;;;;;;;;;;;;;;;;4973425;28;19914;-84
2022/07/23 09:18:57;;;;;;;;;;;;;;;;;;4973109;28;19922;-84
2022/07/23 09:21:23;;;;;;;;;;;;;;;;;;4973310;28;19907;-83
2022/07/23 09:23:48;;;;;;;;;;;;;;;;;;4956879;28;20306;-84
2022/07/23 09:26:13;;;;;;;;;;;;;;;;;;4972280;28;19914;-81
2022/07/23 09:28:39;;;;;;;;;;;;;;;;;;4972134;28;19914;-82
2022/07/23 09:31:04;;;;;;;;;;;;;;;;;;4971462;28;20049;-81
2022/07/23 09:33:30;;;;;;;;;;;;;;;;;;4973302;28;19914;-80
2022/07/23 09:35:55;;;;;;;;;;;;;;;;;;4971976;28;19914;-79
2022/07/23 09:38:21;;;;;;;;;;;;;;;;;;4972645;28;20290;-81
2022/07/23 09:40:46;;;;;;;;;;;;;;;;;;4972364;28;20262;-80
2022/07/23 09:43:12;;;;;;;;;;;;;;;;;;4973142;28;19914;-83
2022/07/23 09:45:39;;;;;;;;;;;;;;;;;;4972065;28;19918;-83
2022/07/23 09:48:04;;;;;;;;;;;;;;;;;;4972580;28;19914;-82
2022/07/23 09:50:30;;;;;;;;;;;;;;;;;;4972733;28;19937;-81
2022/07/23 09:52:55;;;;;;;;;;;;;;;;;;4971503;28;20089;-82
2022/07/23 09:55:21;;;;;;;;;;;;;;;;;;4971744;28;19961;-80
2022/07/23 09:57:55;;;;;;;;;;;;;;;;;;4973110;28;20017;-82
2022/07/23 10:00:21;;;;;;;;;;;;;;;;;;4972844;28;19997;-81
2022/07/23 10:02:46;;;;;;;;;;;;;;;;;;4972505;28;20345;-83
2022/07/23 10:05:27;;;;;;;;;;;;;;;;;;4972824;28;19960;-82
2022/07/23 10:08:01;;;;;;;;;;;;;;;;;;4971554;28;19914;-82
2022/07/23 10:10:45;;;;;;;;;;;;;;;;;;4972673;28;19931;-81
2022/07/23 10:16:08;;;;;;;;;;;;;;;;;;4971503;28;20393;-82
2022/07/23 10:18:33;;;;;;;;;;;;;;;;;;4955572;28;19996;-82
2022/07/23 10:20:59;;;;;;;;;;;;;;;;;;4971669;28;19918;-83
2022/07/23 10:23:25;;;;;;;;;;;;;;;;;;4972497;28;19914;-82
2022/07/23 10:25:50;;;;;;;;;;;;;;;;;;4975848;28;19965;-82
2022/07/23 10:28:15;;;;;;;;;;;;;;;;;;4975989;28;19914;-82
2022/07/23 10:30:42;;;;;;;;;;;;;;;;;;4958555;28;20493;-83
2022/07/23 10:33:07;;;;;;;;;;;;;;;;;;4974731;28;20440;-83
2022/07/23 10:35:33;;;;;;;;;;;;;;;;;;4976067;28;19910;-82
2022/07/23 10:37:58;;;;;;;;;;;;;;;;;;4974963;28;20298;-82
2022/07/23 10:40:23;;;;;;;;;;;;;;;;;;4975892;28;19957;-82
2022/07/23 10:42:50;;;;;;;;;;;;;;;;;;4976554;28;20004;-82
2022/07/23 10:45:16;;;;;;;;;;;;;;;;;;4974631;28;19942;-82
2022/07/23 10:47:41;;;;;;;;;;;;;;;;;;4975897;28;19914;-82
2022/07/23 10:50:06;;;;;;;;;;;;;;;;;;4974516;28;19910;-81
2022/07/23 10:52:32;;;;;;;;;;;;;;;;;;4974828;28;19925;-80
2022/07/23 10:54:57;;;;;;;;;;;;;;;;;;4976630;28;19960;-83
2022/07/23 10:57:23;;;;;;;;;;;;;;;;;;4979303;28;19914;-82
2022/07/23 10:59:48;;;;;;;;;;;;;;;;;;4982507;28;19937;-81
2022/07/23 11:02:14;;;;;;;;;;;;;;;;;;4982519;28;19921;-83
2022/07/23 11:04:40;;;;;;;;;;;;;;;;;;4966097;28;19910;-82
2022/07/23 11:07:05;;;;;;;;;;;;;;;;;;4982124;28;19915;-82
2022/07/23 11:09:31;;;;;;;;;;;;;;;;;;4964993;28;19915;-81
2022/07/23 11:11:56;;;;;;;;;;;;;;;;;;4984193;28;19922;-83
2022/07/23 11:14:21;;;;;;;;;;;;;;;;;;4980458;28;20336;-82
2022/07/23 11:16:48;;;;;;;;;;;;;;;;;;4979188;28;19922;-81
2022/07/23 11:19:13;;;;;;;;;;;;;;;;;;4977983;28;20409;-81
2022/07/23 11:21:39;;;;;;;;;;;;;;;;;;4979594;28;19921;-81
2022/07/23 11:24:06;;;;;;;;;;;;;;;;;;4977549;28;19910;-81
2022/07/23 11:26:31;;;;;;;;;;;;;;;;;;4977656;28;20402;-80
2022/07/23 11:28:57;;;;;;;;;;;;;;;;;;4976388;28;20108;-82
2022/07/23 11:31:23;;;;;;;;;;;;;;;;;;4973697;28;20016;-83
2022/07/23 11:33:49;;;;;;;;;;;;;;;;;;4973715;28;19921;-82
2022/07/23 11:36:14;;;;;;;;;;;;;;;;;;4973922;28;20318;-82
2022/07/23 11:38:39;;;;;;;;;;;;;;;;;;4973648;28;20293;-81
2022/07/23 11:41:05;;;;;;;;;;;;;;;;;;4973312;28;20017;-81
2022/07/23 11:43:30;;;;;;;;;;;;;;;;;;4972952;28;19921;-82
2022/07/23 11:45:56;;;;;;;;;;;;;;;;;;4973184;28;19925;-81
2022/07/23 11:48:21;;;;;;;;;;;;;;;;;;4957455;28;19926;-81
2022/07/23 11:50:47;;;;;;;;;;;;;;;;;;4973290;28;20033;-81
2022/07/23 11:53:12;;;;;;;;;;;;;;;;;;4974312;28;20000;-81
2022/07/23 11:55:37;;;;;;;;;;;;;;;;;;4974796;28;20297;-81
2022/07/23 11:58:03;;;;;;;;;;;;;;;;;;4973440;28;19914;-82
2022/07/23 12:00:28;;;;;;;;;;;;;;;;;;4973013;28;20150;-82
2022/07/23 12:02:53;;;;;;;;;;;;;;;;;;4974276;28;19918;-82
2022/07/23 12:05:19;;;;;;;;;;;;;;;;;;4973389;28;19937;-81
2022/07/23 12:07:44;;;;;;;;;;;;;;;;;;4956847;28;19949;-80
2022/07/23 12:10:10;;;;;;;;;;;;;;;;;;4974594;28;19929;-80
2022/07/23 12:12:35;;;;;;;;;;;;;;;;;;4972571;28;19925;-81
2022/07/23 12:15:01;;;;;;;;;;;;;;;;;;4973286;28;20325;-83
2022/07/23 12:17:27;;;;;;;;;;;;;;;;;;4974618;28;19917;-80
2022/07/23 12:19:53;;;;;;;;;;;;;;;;;;4974761;28;19968;-82
2022/07/23 12:22:18;;;;;;;;;;;;;;;;;;4973037;28;20000;-81
2022/07/23 12:24:43;;;;;;;;;;;;;;;;;;4956262;28;20393;-82
2022/07/23 12:27:09;;;;;;;;;;;;;;;;;;4972522;28;19914;-81
2022/07/23 12:29:35;;;;;;;;;;;;;;;;;;4972880;28;20234;-83
2022/07/23 12:32:01;;;;;;;;;;;;;;;;;;4972367;28;20196;-81
2022/07/23 12:34:26;;;;;;;;;;;;;;;;;;4972672;28;20001;-82
2022/07/23 12:36:52;;;;;;;;;;;;;;;;;;4973835;28;19989;-80
2022/07/23 12:39:19;;;;;;;;;;;;;;;;;;4972380;28;20330;-81
2022/07/23 12:41:45;;;;;;;;;;;;;;;;;;4974096;28;19953;-81
2022/07/23 12:44:10;;;;;;;;;;;;;;;;;;4973889;28;19938;-81
2022/07/23 12:46:35;;;;;;;;;;;;;;;;;;4974050;28;19976;-82
2022/07/23 12:49:01;;;;;;;;;;;;;;;;;;4972980;28;19970;-82
2022/07/23 12:51:27;;;;;;;;;;;;;;;;;;4973468;28;19925;-83
2022/07/23 12:53:53;;;;;;;;;;;;;;;;;;4973469;28;19921;-81
2022/07/23 12:56:18;;;;;;;;;;;;;;;;;;4972314;28;19922;-81
2022/07/23 12:58:44;;;;;;;;;;;;;;;;;;4973324;28;19956;-82
2022/07/23 13:01:09;;;;;;;;;;;;;;;;;;4972230;28;20437;-81
2022/07/23 13:03:35;;;;;;;;;;;;;;;;;;4973180;28;20332;-83
2022/07/23 13:06:00;;;;;;;;;;;;;;;;;;4972262;28;19915;-82
2022/07/23 13:08:26;;;;;;;;;;;;;;;;;;4972256;28;19914;-81
2022/07/23 13:10:51;;;;;;;;;;;;;;;;;;4972969;28;20297;-82
2022/07/23 13:13:16;;;;;;;;;;;;;;;;;;4971865;28;19914;-81
2022/07/23 13:15:42;;;;;;;;;;;;;;;;;;4972492;28;19914;-82
2022/07/23 13:18:07;;;;;;;;;;;;;;;;;;4972279;28;19919;-83
2022/07/23 13:20:33;;;;;;;;;;;;;;;;;;4973901;28;20419;-82
2022/07/23 13:22:59;;;;;;;;;;;;;;;;;;4973829;28;20389;-81
2022/07/23 13:25:24;;;;;;;;;;;;;;;;;;4974560;28;19987;-82
2022/07/23 13:27:50;;;;;;;;;;;;;;;;;;4971933;28;19914;-82
2022/07/23 13:30:15;;;;;;;;;;;;;;;;;;4955942;28;20012;-82
2022/07/23 13:32:41;;;;;;;;;;;;;;;;;;4970698;23;19960;-78
2022/07/23 13:35:07;;;;;;;;;;;;;;;;;;4952724;29;20442;-79
2022/07/23 13:37:32;;;;;;;;;;;;;;;;;;4938555;29;19957;-79
2022/07/23 13:39:57;;;;;;;;;;;;;;;;;;4937477;29;19919;-79
2022/07/23 13:42:23;;;;;;;;;;;;;;;;;;4954342;28;20374;-79
2022/07/23 13:44:48;;;;;;;;;;;;;;;;;;4938281;29;20410;-79
2022/07/23 13:47:14;;;;;;;;;;;;;;;;;;4923785;29;20477;-79
2022/07/23 13:49:39;;;;;;;;;;;;;;;;;;4936864;29;19919;-80
2022/07/23 13:52:04;;;;;;;;;;;;;;;;;;4953715;28;20009;-79
2022/07/23 13:54:30;;;;;;;;;;;;;;;;;;4936650;29;19918;-79
2022/07/23 13:56:55;;;;;;;;;;;;;;;;;;4920511;29;19921;-79
2022/07/23 13:59:21;;;;;;;;;;;;;;;;;;4922072;29;19922;-80
2022/07/23 14:01:46;;;;;;;;;;;;;;;;;;4957518;28;20409;-80
2022/07/23 14:04:11;;;;;;;;;;;;;;;;;;4924237;29;19922;-79
2022/07/23 14:06:37;;;;;;;;;;;;;;;;;;4940438;29;20334;-80
2022/07/23 14:09:02;;;;;;;;;;;;;;;;;;4940158;29;20289;-80
2022/07/23 14:11:30;;;;;;;;;;;;;;;;;;4957050;28;20290;-80
2022/07/23 14:13:55;;;;;;;;;;;;;;;;;;4941313;29;19956;-79
2022/07/23 14:16:21;;;;;;;;;;;;;;;;;;4957387;29;20358;-79
2022/07/23 14:18:46;;;;;;;;;;;;;;;;;;4940638;29;19919;-79
2022/07/23 14:21:11;;;;;;;;;;;;;;;;;;4957029;28;20377;-79
2022/07/23 14:23:37;;;;;;;;;;;;;;;;;;4956798;29;19918;-79
2022/07/23 14:26:02;;;;;;;;;;;;;;;;;;4942263;29;20294;-78
2022/07/23 14:28:28;;;;;;;;;;;;;;;;;;4957107;29;19921;-80
2022/07/23 14:30:53;;;;;;;;;;;;;;;;;;4956921;28;19918;-78
2022/07/23 14:33:19;;;;;;;;;;;;;;;;;;4923423;29;19919;-80
2022/07/23 14:35:45;;;;;;;;;;;;;;;;;;4938590;29;20022;-81
2022/07/23 14:38:12;;;;;;;;;;;;;;;;;;4922676;29;19973;-80
2022/07/23 14:40:38;;;;;;;;;;;;;;;;;;4923103;29;20374;-79
2022/07/23 14:43:03;;;;;;;;;;;;;;;;;;4922937;29;19915;-79
2022/07/23 14:45:29;;;;;;;;;;;;;;;;;;4956530;29;19915;-79
2022/07/23 14:47:55;;;;;;;;;;;;;;;;;;4939219;29;19915;-80
2022/07/23 14:50:21;;;;;;;;;;;;;;;;;;4939037;29;20341;-79
2022/07/23 14:52:46;;;;;;;;;;;;;;;;;;4956186;28;19922;-80
2022/07/23 14:55:11;;;;;;;;;;;;;;;;;;4956403;29;20267;-79
2022/07/23 14:57:37;;;;;;;;;;;;;;;;;;4956410;29;20285;-80
2022/07/23 15:00:02;;;;;;;;;;;;;;;;;;4939405;29;19997;-80
2022/07/23 15:02:28;;;;;;;;;;;;;;;;;;4956293;28;19914;-80
2022/07/23 15:04:53;;;;;;;;;;;;;;;;;;4956147;29;19915;-79
2022/07/23 15:07:19;;;;;;;;;;;;;;;;;;4956093;29;19915;-80
2022/07/23 15:09:44;;;;;;;;;;;;;;;;;;4938999;29;19922;-80
2022/07/23 15:12:09;;;;;;;;;;;;;;;;;;4906319;29;19920;-80
2022/07/23 15:14:35;;;;;;;;;;;;;;;;;;4956035;29;19915;-80
2022/07/23 15:17:00;;;;;;;;;;;;;;;;;;4939154;29;20310;-80
2022/07/23 15:19:26;;;;;;;;;;;;;;;;;;4938816;29;19965;-80
2022/07/23 15:21:51;;;;;;;;;;;;;;;;;;4955751;28;19914;-79
2022/07/23 15:24:16;;;;;;;;;;;;;;;;;;4955529;29;20293;-79
2022/07/23 15:26:42;;;;;;;;;;;;;;;;;;4922953;29;19924;-79
2022/07/23 15:29:07;;;;;;;;;;;;;;;;;;4955874;29;19964;-80
2022/07/23 15:31:33;;;;;;;;;;;;;;;;;;4955490;28;19938;-80
2022/07/23 15:33:58;;;;;;;;;;;;;;;;;;4938317;29;19914;-80
2022/07/23 15:36:24;;;;;;;;;;;;;;;;;;4938692;29;19922;-80
2022/07/23 15:38:49;;;;;;;;;;;;;;;;;;4906971;29;19914;-80
2022/07/23 15:41:15;;;;;;;;;;;;;;;;;;4922314;29;20057;-80
2022/07/23 15:43:40;;;;;;;;;;;;;;;;;;4937893;29;19962;-80
2022/07/23 15:46:05;;;;;;;;;;;;;;;;;;4938286;29;19921;-81
2022/07/23 15:48:31;;;;;;;;;;;;;;;;;;4955290;29;20354;-80
2022/07/23 15:50:56;;;;;;;;;;;;;;;;;;4937873;28;19938;-80
2022/07/23 15:53:22;;;;;;;;;;;;;;;;;;4955134;29;19914;-80
2022/07/23 15:55:47;;;;;;;;;;;;;;;;;;4955378;29;19915;-79
2022/07/23 15:58:13;;;;;;;;;;;;;;;;;;4938318;29;19997;-80
2022/07/23 16:00:38;;;;;;;;;;;;;;;;;;4937994;29;20009;-79
2022/07/23 16:03:04;;;;;;;;;;;;;;;;;;4937994;29;19921;-80
2022/07/23 16:05:32;;;;;;;;;;;;;;;;;;4922080;29;19915;-80
2022/07/23 16:07:58;;;;;;;;;;;;;;;;;;4954796;29;19915;-80
2022/07/23 16:10:23;;;;;;;;;;;;;;;;;;4954833;29;20297;-81
2022/07/23 16:12:49;;;;;;;;;;;;;;;;;;4954599;28;20366;-80
2022/07/23 16:15:14;;;;;;;;;;;;;;;;;;4937885;29;19914;-80
2022/07/23 16:17:40;;;;;;;;;;;;;;;;;;4954956;29;19914;-79
2022/07/23 16:20:07;;;;;;;;;;;;;;;;;;4954901;29;19914;-78
2022/07/23 16:22:32;;;;;;;;;;;;;;;;;;4937509;29;20002;-79
2022/07/23 16:24:58;;;;;;;;;;;;;;;;;;4954978;29;19974;-78
2022/07/23 16:27:23;;;;;;;;;;;;;;;;;;4937581;29;19914;-78
2022/07/23 16:29:48;;;;;;;;;;;;;;;;;;4937683;29;20022;-78
2022/07/23 16:32:14;;;;;;;;;;;;;;;;;;4921149;29;19961;-78
2022/07/23 16:34:39;;;;;;;;;;;;;;;;;;4937536;29;19921;-78
2022/07/23 16:37:04;;;;;;;;;;;;;;;;;;4954538;29;20417;-79
2022/07/23 16:39:30;;;;;;;;;;;;;;;;;;4905816;29;20385;-79